sensor_id;sensor_type;location;lat;lon;timestamp;P1;durP1;ratioP1;P2;durP2;ratioP2
8978;SDS011;4524;51.364;5.448;2023-05-06T00:00:27;13.53;;;12.13;;
8978;SDS011;4524;51.364;5.448;2023-05-06T00:02:55;14.10;;;12.70;;
8978;SDS011;4524;51.364;5.448;2023-05-06T00:05:27;13.90;;;11.90;;
8978;SDS011;4524;51.364;5.448;2023-05-06T00:07:55;14.73;;;11.90;;
8978;SDS011;4524;51.364;5.448;2023-05-06T00:10:23;13.57;;;12.13;;
8978;SDS011;4524;51.364;5.448;2023-05-06T00:12:51;13.90;;;12.40;;
8978;SDS011;4524;51.364;5.448;2023-05-06T00:15:19;14.13;;;12.63;;
8978;SDS011;4524;51.364;5.448;2023-05-06T00:17:47;15.67;;;13.60;;
8978;SDS011;4524;51.364;5.448;2023-05-06T00:20:15;13.17;;;11.47;;
8978;SDS011;4524;51.364;5.448;2023-05-06T00:22:44;14.57;;;13.00;;
8978;SDS011;4524;51.364;5.448;2023-05-06T00:25:12;13.63;;;11.80;;
8978;SDS011;4524;51.364;5.448;2023-05-06T00:27:40;14.00;;;11.10;;
8978;SDS011;4524;51.364;5.448;2023-05-06T00:30:10;12.30;;;11.03;;
8978;SDS011;4524;51.364;5.448;2023-05-06T00:32:39;12.77;;;11.47;;
8978;SDS011;4524;51.364;5.448;2023-05-06T00:35:07;12.17;;;10.93;;
8978;SDS011;4524;51.364;5.448;2023-05-06T00:37:36;13.50;;;12.20;;
8978;SDS011;4524;51.364;5.448;2023-05-06T00:40:06;14.47;;;12.43;;
8978;SDS011;4524;51.364;5.448;2023-05-06T00:42:35;11.97;;;10.73;;
8978;SDS011;4524;51.364;5.448;2023-05-06T00:45:03;12.37;;;11.17;;
8978;SDS011;4524;51.364;5.448;2023-05-06T00:47:32;13.23;;;11.90;;
8978;SDS011;4524;51.364;5.448;2023-05-06T00:50:01;14.03;;;11.80;;
8978;SDS011;4524;51.364;5.448;2023-05-06T00:52:29;12.90;;;11.60;;
8978;SDS011;4524;51.364;5.448;2023-05-06T00:54:57;12.03;;;10.73;;
8978;SDS011;4524;51.364;5.448;2023-05-06T00:57:26;17.73;;;13.90;;
8978;SDS011;4524;51.364;5.448;2023-05-06T00:59:54;15.03;;;13.07;;
8978;SDS011;4524;51.364;5.448;2023-05-06T01:02:22;12.50;;;11.20;;
8978;SDS011;4524;51.364;5.448;2023-05-06T01:05:01;12.97;;;11.67;;
8978;SDS011;4524;51.364;5.448;2023-05-06T01:07:31;13.40;;;11.97;;
8978;SDS011;4524;51.364;5.448;2023-05-06T01:10:09;12.00;;;10.80;;
8978;SDS011;4524;51.364;5.448;2023-05-06T01:12:49;12.03;;;10.77;;
8978;SDS011;4524;51.364;5.448;2023-05-06T01:15:25;18.20;;;11.50;;
8978;SDS011;4524;51.364;5.448;2023-05-06T01:18:00;13.00;;;11.70;;
8978;SDS011;4524;51.364;5.448;2023-05-06T01:20:31;12.63;;;11.43;;
8978;SDS011;4524;51.364;5.448;2023-05-06T01:23:00;12.73;;;10.57;;
8978;SDS011;4524;51.364;5.448;2023-05-06T01:25:29;12.30;;;10.60;;
8978;SDS011;4524;51.364;5.448;2023-05-06T01:27:58;14.83;;;11.23;;
8978;SDS011;4524;51.364;5.448;2023-05-06T01:30:27;12.37;;;10.70;;
8978;SDS011;4524;51.364;5.448;2023-05-06T01:33:03;12.90;;;11.47;;
8978;SDS011;4524;51.364;5.448;2023-05-06T01:35:39;13.13;;;10.90;;
8978;SDS011;4524;51.364;5.448;2023-05-06T01:38:19;11.40;;;10.13;;
8978;SDS011;4524;51.364;5.448;2023-05-06T01:40:55;12.33;;;10.93;;
8978;SDS011;4524;51.364;5.448;2023-05-06T01:43:27;11.87;;;10.67;;
8978;SDS011;4524;51.364;5.448;2023-05-06T01:45:57;12.40;;;10.57;;
8978;SDS011;4524;51.364;5.448;2023-05-06T01:48:29;11.13;;;10.03;;
8978;SDS011;4524;51.364;5.448;2023-05-06T01:51:00;12.30;;;10.60;;
8978;SDS011;4524;51.364;5.448;2023-05-06T01:53:28;12.07;;;10.50;;
8978;SDS011;4524;51.364;5.448;2023-05-06T01:56:00;12.10;;;10.73;;
8978;SDS011;4524;51.364;5.448;2023-05-06T01:58:28;13.97;;;11.77;;
8978;SDS011;4524;51.364;5.448;2023-05-06T02:00:56;10.53;;;9.53;;
8978;SDS011;4524;51.364;5.448;2023-05-06T02:03:24;13.17;;;11.00;;
8978;SDS011;4524;51.364;5.448;2023-05-06T02:05:52;11.67;;;9.90;;
8978;SDS011;4524;51.364;5.448;2023-05-06T02:08:20;13.17;;;10.17;;
8978;SDS011;4524;51.364;5.448;2023-05-06T02:10:48;12.87;;;10.97;;
8978;SDS011;4524;51.364;5.448;2023-05-06T02:13:18;13.00;;;10.97;;
8978;SDS011;4524;51.364;5.448;2023-05-06T02:15:50;11.53;;;10.20;;
8978;SDS011;4524;51.364;5.448;2023-05-06T02:18:20;10.83;;;9.57;;
8978;SDS011;4524;51.364;5.448;2023-05-06T02:20:48;10.70;;;9.60;;
8978;SDS011;4524;51.364;5.448;2023-05-06T02:23:16;10.20;;;9.20;;
8978;SDS011;4524;51.364;5.448;2023-05-06T02:25:44;10.90;;;9.60;;
8978;SDS011;4524;51.364;5.448;2023-05-06T02:28:12;10.63;;;9.43;;
8978;SDS011;4524;51.364;5.448;2023-05-06T02:30:44;11.50;;;9.53;;
8978;SDS011;4524;51.364;5.448;2023-05-06T02:33:12;10.67;;;9.67;;
8978;SDS011;4524;51.364;5.448;2023-05-06T02:35:40;10.47;;;9.40;;
8978;SDS011;4524;51.364;5.448;2023-05-06T02:38:08;10.63;;;9.63;;
8978;SDS011;4524;51.364;5.448;2023-05-06T02:40:36;11.90;;;9.53;;
8978;SDS011;4524;51.364;5.448;2023-05-06T02:43:04;10.67;;;9.60;;
8978;SDS011;4524;51.364;5.448;2023-05-06T02:45:32;10.63;;;9.53;;
8978;SDS011;4524;51.364;5.448;2023-05-06T02:48:02;10.97;;;9.77;;
8978;SDS011;4524;51.364;5.448;2023-05-06T02:50:30;10.97;;;9.57;;
8978;SDS011;4524;51.364;5.448;2023-05-06T02:52:58;10.57;;;9.17;;
8978;SDS011;4524;51.364;5.448;2023-05-06T02:55:26;10.93;;;9.83;;
8978;SDS011;4524;51.364;5.448;2023-05-06T02:57:54;12.90;;;9.70;;
8978;SDS011;4524;51.364;5.448;2023-05-06T03:00:22;10.27;;;9.23;;
8978;SDS011;4524;51.364;5.448;2023-05-06T03:02:50;15.37;;;10.37;;
8978;SDS011;4524;51.364;5.448;2023-05-06T03:05:19;11.07;;;8.87;;
8978;SDS011;4524;51.364;5.448;2023-05-06T03:07:47;9.63;;;8.67;;
8978;SDS011;4524;51.364;5.448;2023-05-06T03:10:15;9.93;;;8.93;;
8978;SDS011;4524;51.364;5.448;2023-05-06T03:12:44;9.80;;;8.90;;
8978;SDS011;4524;51.364;5.448;2023-05-06T03:15:11;10.37;;;9.27;;
8978;SDS011;4524;51.364;5.448;2023-05-06T03:17:39;9.70;;;7.97;;
8978;SDS011;4524;51.364;5.448;2023-05-06T03:20:08;9.80;;;8.37;;
8978;SDS011;4524;51.364;5.448;2023-05-06T03:22:41;9.07;;;8.17;;
8978;SDS011;4524;51.364;5.448;2023-05-06T03:25:09;9.83;;;8.83;;
8978;SDS011;4524;51.364;5.448;2023-05-06T03:27:39;9.50;;;8.30;;
8978;SDS011;4524;51.364;5.448;2023-05-06T03:30:15;10.17;;;8.97;;
8978;SDS011;4524;51.364;5.448;2023-05-06T03:32:44;10.70;;;9.57;;
8978;SDS011;4524;51.364;5.448;2023-05-06T03:35:17;9.57;;;8.67;;
8978;SDS011;4524;51.364;5.448;2023-05-06T03:37:51;8.30;;;7.53;;
8978;SDS011;4524;51.364;5.448;2023-05-06T03:40:21;10.83;;;9.33;;
8978;SDS011;4524;51.364;5.448;2023-05-06T03:42:50;9.97;;;8.97;;
8978;SDS011;4524;51.364;5.448;2023-05-06T03:45:20;9.13;;;7.93;;
8978;SDS011;4524;51.364;5.448;2023-05-06T03:47:48;8.97;;;8.17;;
8978;SDS011;4524;51.364;5.448;2023-05-06T03:50:18;9.23;;;7.90;;
8978;SDS011;4524;51.364;5.448;2023-05-06T03:52:47;9.53;;;8.53;;
8978;SDS011;4524;51.364;5.448;2023-05-06T03:55:17;9.77;;;8.17;;
8978;SDS011;4524;51.364;5.448;2023-05-06T03:57:45;8.80;;;8.00;;
8978;SDS011;4524;51.364;5.448;2023-05-06T04:00:14;8.47;;;7.67;;
8978;SDS011;4524;51.364;5.448;2023-05-06T04:02:44;8.57;;;7.63;;
8978;SDS011;4524;51.364;5.448;2023-05-06T04:05:20;9.90;;;8.60;;
8978;SDS011;4524;51.364;5.448;2023-05-06T04:07:48;7.93;;;7.13;;
8978;SDS011;4524;51.364;5.448;2023-05-06T04:10:17;9.67;;;8.13;;
8978;SDS011;4524;51.364;5.448;2023-05-06T04:12:48;9.43;;;8.10;;
8978;SDS011;4524;51.364;5.448;2023-05-06T04:15:23;8.63;;;7.83;;
8978;SDS011;4524;51.364;5.448;2023-05-06T04:17:51;8.80;;;7.90;;
8978;SDS011;4524;51.364;5.448;2023-05-06T04:20:19;8.03;;;7.23;;
8978;SDS011;4524;51.364;5.448;2023-05-06T04:22:48;8.30;;;7.60;;
8978;SDS011;4524;51.364;5.448;2023-05-06T04:25:17;8.53;;;7.63;;
8978;SDS011;4524;51.364;5.448;2023-05-06T04:27:47;8.83;;;7.60;;
8978;SDS011;4524;51.364;5.448;2023-05-06T04:30:15;11.60;;;7.97;;
8978;SDS011;4524;51.364;5.448;2023-05-06T04:32:43;8.73;;;7.80;;
8978;SDS011;4524;51.364;5.448;2023-05-06T04:35:13;8.63;;;7.60;;
8978;SDS011;4524;51.364;5.448;2023-05-06T04:37:41;7.87;;;7.13;;
8978;SDS011;4524;51.364;5.448;2023-05-06T04:40:19;8.48;;;7.15;;
8978;SDS011;4524;51.364;5.448;2023-05-06T04:42:50;9.88;;;8.88;;
8978;SDS011;4524;51.364;5.448;2023-05-06T04:45:22;8.93;;;8.13;;
8978;SDS011;4524;51.364;5.448;2023-05-06T04:47:52;9.70;;;8.70;;
8978;SDS011;4524;51.364;5.448;2023-05-06T04:50:20;9.63;;;7.20;;
8978;SDS011;4524;51.364;5.448;2023-05-06T04:52:48;7.40;;;6.70;;
8978;SDS011;4524;51.364;5.448;2023-05-06T04:55:17;8.47;;;7.37;;
8978;SDS011;4524;51.364;5.448;2023-05-06T04:57:51;8.10;;;6.77;;
8978;SDS011;4524;51.364;5.448;2023-05-06T05:00:19;8.70;;;6.90;;
8978;SDS011;4524;51.364;5.448;2023-05-06T05:02:47;8.37;;;6.90;;
8978;SDS011;4524;51.364;5.448;2023-05-06T05:05:16;8.20;;;7.13;;
8978;SDS011;4524;51.364;5.448;2023-05-06T05:07:48;9.60;;;6.43;;
8978;SDS011;4524;51.364;5.448;2023-05-06T05:10:16;7.33;;;6.60;;
8978;SDS011;4524;51.364;5.448;2023-05-06T05:12:46;9.43;;;6.63;;
8978;SDS011;4524;51.364;5.448;2023-05-06T05:15:16;6.97;;;6.27;;
8978;SDS011;4524;51.364;5.448;2023-05-06T05:17:45;7.93;;;6.00;;
8978;SDS011;4524;51.364;5.448;2023-05-06T05:20:14;8.27;;;6.90;;
8978;SDS011;4524;51.364;5.448;2023-05-06T05:22:42;7.73;;;6.40;;
8978;SDS011;4524;51.364;5.448;2023-05-06T05:25:10;8.67;;;6.20;;
8978;SDS011;4524;51.364;5.448;2023-05-06T05:27:38;7.57;;;5.70;;
8978;SDS011;4524;51.364;5.448;2023-05-06T05:30:07;7.80;;;5.60;;
8978;SDS011;4524;51.364;5.448;2023-05-06T05:32:38;7.33;;;6.60;;
8978;SDS011;4524;51.364;5.448;2023-05-06T05:35:07;8.17;;;5.90;;
8978;SDS011;4524;51.364;5.448;2023-05-06T05:37:38;7.53;;;6.20;;
8978;SDS011;4524;51.364;5.448;2023-05-06T05:40:07;8.10;;;6.50;;
8978;SDS011;4524;51.364;5.448;2023-05-06T05:42:38;7.13;;;6.13;;
8978;SDS011;4524;51.364;5.448;2023-05-06T05:45:14;7.07;;;6.10;;
8978;SDS011;4524;51.364;5.448;2023-05-06T05:47:44;7.10;;;6.40;;
8978;SDS011;4524;51.364;5.448;2023-05-06T05:50:14;6.67;;;5.83;;
8978;SDS011;4524;51.364;5.448;2023-05-06T05:52:43;8.67;;;6.23;;
8978;SDS011;4524;51.364;5.448;2023-05-06T05:55:11;7.13;;;5.67;;
8978;SDS011;4524;51.364;5.448;2023-05-06T05:57:42;6.90;;;6.10;;
8978;SDS011;4524;51.364;5.448;2023-05-06T06:00:11;7.23;;;5.73;;
8978;SDS011;4524;51.364;5.448;2023-05-06T06:02:44;6.60;;;5.83;;
8978;SDS011;4524;51.364;5.448;2023-05-06T06:05:17;8.43;;;5.90;;
8978;SDS011;4524;51.364;5.448;2023-05-06T06:07:45;8.83;;;6.23;;
8978;SDS011;4524;51.364;5.448;2023-05-06T06:10:13;6.63;;;5.60;;
8978;SDS011;4524;51.364;5.448;2023-05-06T06:12:42;7.20;;;5.83;;
8978;SDS011;4524;51.364;5.448;2023-05-06T06:15:15;6.60;;;5.70;;
8978;SDS011;4524;51.364;5.448;2023-05-06T06:17:45;7.43;;;5.77;;
8978;SDS011;4524;51.364;5.448;2023-05-06T06:20:14;6.87;;;6.03;;
8978;SDS011;4524;51.364;5.448;2023-05-06T06:22:42;7.17;;;5.77;;
8978;SDS011;4524;51.364;5.448;2023-05-06T06:25:10;6.60;;;5.77;;
8978;SDS011;4524;51.364;5.448;2023-05-06T06:27:38;7.10;;;6.40;;
8978;SDS011;4524;51.364;5.448;2023-05-06T06:30:06;9.53;;;5.70;;
8978;SDS011;4524;51.364;5.448;2023-05-06T06:32:35;14.57;;;6.07;;
8978;SDS011;4524;51.364;5.448;2023-05-06T06:35:06;14.73;;;6.30;;
8978;SDS011;4524;51.364;5.448;2023-05-06T06:37:34;8.70;;;5.67;;
8978;SDS011;4524;51.364;5.448;2023-05-06T06:40:03;8.47;;;5.23;;
8978;SDS011;4524;51.364;5.448;2023-05-06T06:42:32;7.57;;;5.60;;
8978;SDS011;4524;51.364;5.448;2023-05-06T06:45:17;6.83;;;4.97;;
8978;SDS011;4524;51.364;5.448;2023-05-06T06:47:45;5.63;;;5.07;;
8978;SDS011;4524;51.364;5.448;2023-05-06T06:50:15;8.47;;;5.13;;
8978;SDS011;4524;51.364;5.448;2023-05-06T06:52:43;7.23;;;5.93;;
8978;SDS011;4524;51.364;5.448;2023-05-06T06:55:11;7.07;;;4.90;;
8978;SDS011;4524;51.364;5.448;2023-05-06T06:57:39;6.40;;;5.27;;
8978;SDS011;4524;51.364;5.448;2023-05-06T07:00:08;6.00;;;4.70;;
8978;SDS011;4524;51.364;5.448;2023-05-06T07:02:36;5.57;;;4.37;;
8978;SDS011;4524;51.364;5.448;2023-05-06T07:05:05;6.53;;;4.80;;
8978;SDS011;4524;51.364;5.448;2023-05-06T07:07:34;5.30;;;3.93;;
8978;SDS011;4524;51.364;5.448;2023-05-06T07:10:03;8.20;;;4.80;;
8978;SDS011;4524;51.364;5.448;2023-05-06T07:12:31;5.37;;;4.20;;
8978;SDS011;4524;51.364;5.448;2023-05-06T07:14:59;6.57;;;4.10;;
8978;SDS011;4524;51.364;5.448;2023-05-06T07:17:30;6.40;;;5.00;;
8978;SDS011;4524;51.364;5.448;2023-05-06T07:19:58;6.20;;;4.63;;
8978;SDS011;4524;51.364;5.448;2023-05-06T07:22:26;7.40;;;5.10;;
8978;SDS011;4524;51.364;5.448;2023-05-06T07:24:55;6.83;;;4.57;;
8978;SDS011;4524;51.364;5.448;2023-05-06T07:27:23;7.23;;;4.83;;
8978;SDS011;4524;51.364;5.448;2023-05-06T07:29:52;6.03;;;4.70;;
8978;SDS011;4524;51.364;5.448;2023-05-06T07:32:20;5.83;;;4.50;;
8978;SDS011;4524;51.364;5.448;2023-05-06T07:34:48;9.67;;;5.53;;
8978;SDS011;4524;51.364;5.448;2023-05-06T07:37:16;6.40;;;4.67;;
8978;SDS011;4524;51.364;5.448;2023-05-06T07:39:44;5.33;;;4.30;;
8978;SDS011;4524;51.364;5.448;2023-05-06T07:42:13;7.60;;;4.37;;
8978;SDS011;4524;51.364;5.448;2023-05-06T07:44:41;6.53;;;4.40;;
8978;SDS011;4524;51.364;5.448;2023-05-06T07:47:09;4.80;;;4.27;;
8978;SDS011;4524;51.364;5.448;2023-05-06T07:49:37;6.33;;;4.90;;
8978;SDS011;4524;51.364;5.448;2023-05-06T07:52:05;6.63;;;4.70;;
8978;SDS011;4524;51.364;5.448;2023-05-06T07:54:33;5.57;;;4.50;;
8978;SDS011;4524;51.364;5.448;2023-05-06T07:57:01;6.23;;;4.37;;
8978;SDS011;4524;51.364;5.448;2023-05-06T07:59:30;5.53;;;4.60;;
8978;SDS011;4524;51.364;5.448;2023-05-06T08:01:58;4.93;;;4.00;;
8978;SDS011;4524;51.364;5.448;2023-05-06T08:04:26;4.40;;;3.87;;
8978;SDS011;4524;51.364;5.448;2023-05-06T08:06:54;8.57;;;4.27;;
8978;SDS011;4524;51.364;5.448;2023-05-06T08:09:23;9.97;;;4.80;;
8978;SDS011;4524;51.364;5.448;2023-05-06T08:11:51;7.40;;;3.90;;
8978;SDS011;4524;51.364;5.448;2023-05-06T08:14:19;5.90;;;3.67;;
8978;SDS011;4524;51.364;5.448;2023-05-06T08:16:49;5.47;;;3.80;;
8978;SDS011;4524;51.364;5.448;2023-05-06T08:19:17;5.27;;;3.60;;
8978;SDS011;4524;51.364;5.448;2023-05-06T08:21:44;4.47;;;3.73;;
8978;SDS011;4524;51.364;5.448;2023-05-06T08:24:12;4.43;;;3.43;;
8978;SDS011;4524;51.364;5.448;2023-05-06T08:26:40;5.47;;;3.90;;
8978;SDS011;4524;51.364;5.448;2023-05-06T08:29:08;4.73;;;3.90;;
8978;SDS011;4524;51.364;5.448;2023-05-06T08:31:36;4.17;;;3.77;;
8978;SDS011;4524;51.364;5.448;2023-05-06T08:34:06;6.00;;;3.90;;
8978;SDS011;4524;51.364;5.448;2023-05-06T08:36:34;5.37;;;3.73;;
8978;SDS011;4524;51.364;5.448;2023-05-06T08:39:02;4.77;;;3.50;;
8978;SDS011;4524;51.364;5.448;2023-05-06T08:41:31;5.60;;;3.70;;
8978;SDS011;4524;51.364;5.448;2023-05-06T08:44:01;4.40;;;3.00;;
8978;SDS011;4524;51.364;5.448;2023-05-06T08:46:31;5.63;;;3.50;;
8978;SDS011;4524;51.364;5.448;2023-05-06T08:48:59;4.60;;;3.17;;
8978;SDS011;4524;51.364;5.448;2023-05-06T08:51:29;5.27;;;3.20;;
8978;SDS011;4524;51.364;5.448;2023-05-06T08:54:00;3.67;;;2.90;;
8978;SDS011;4524;51.364;5.448;2023-05-06T08:56:29;4.07;;;3.30;;
8978;SDS011;4524;51.364;5.448;2023-05-06T08:58:59;3.13;;;2.77;;
8978;SDS011;4524;51.364;5.448;2023-05-06T09:01:27;4.90;;;3.37;;
8978;SDS011;4524;51.364;5.448;2023-05-06T09:03:55;6.43;;;3.37;;
8978;SDS011;4524;51.364;5.448;2023-05-06T09:06:24;4.40;;;3.07;;
8978;SDS011;4524;51.364;5.448;2023-05-06T09:08:53;5.17;;;2.90;;
8978;SDS011;4524;51.364;5.448;2023-05-06T09:11:22;4.37;;;2.90;;
8978;SDS011;4524;51.364;5.448;2023-05-06T09:14:05;7.37;;;2.43;;
8978;SDS011;4524;51.364;5.448;2023-05-06T09:16:35;4.93;;;2.60;;
8978;SDS011;4524;51.364;5.448;2023-05-06T09:19:03;4.00;;;2.37;;
8978;SDS011;4524;51.364;5.448;2023-05-06T09:21:31;3.90;;;2.27;;
8978;SDS011;4524;51.364;5.448;2023-05-06T09:24:01;4.13;;;2.30;;
8978;SDS011;4524;51.364;5.448;2023-05-06T09:26:31;3.30;;;2.10;;
8978;SDS011;4524;51.364;5.448;2023-05-06T09:29:01;3.20;;;2.30;;
8978;SDS011;4524;51.364;5.448;2023-05-06T09:31:30;3.07;;;2.17;;
8978;SDS011;4524;51.364;5.448;2023-05-06T09:33:59;3.30;;;2.47;;
8978;SDS011;4524;51.364;5.448;2023-05-06T09:36:27;3.87;;;2.20;;
8978;SDS011;4524;51.364;5.448;2023-05-06T09:38:56;3.53;;;2.40;;
8978;SDS011;4524;51.364;5.448;2023-05-06T09:41:25;4.17;;;2.33;;
8978;SDS011;4524;51.364;5.448;2023-05-06T09:43:53;4.43;;;2.17;;
8978;SDS011;4524;51.364;5.448;2023-05-06T09:46:23;3.60;;;2.20;;
8978;SDS011;4524;51.364;5.448;2023-05-06T09:48:52;2.50;;;1.90;;
8978;SDS011;4524;51.364;5.448;2023-05-06T09:51:21;4.90;;;2.00;;
8978;SDS011;4524;51.364;5.448;2023-05-06T09:53:49;4.30;;;2.03;;
8978;SDS011;4524;51.364;5.448;2023-05-06T09:56:18;3.47;;;2.20;;
8978;SDS011;4524;51.364;5.448;2023-05-06T09:58:48;2.67;;;1.83;;
8978;SDS011;4524;51.364;5.448;2023-05-06T10:01:18;3.20;;;2.03;;
8978;SDS011;4524;51.364;5.448;2023-05-06T10:04:02;2.40;;;1.63;;
8978;SDS011;4524;51.364;5.448;2023-05-06T10:06:34;2.27;;;1.63;;
8978;SDS011;4524;51.364;5.448;2023-05-06T10:09:05;1.77;;;1.60;;
8978;SDS011;4524;51.364;5.448;2023-05-06T10:11:34;4.97;;;1.70;;
8978;SDS011;4524;51.364;5.448;2023-05-06T10:14:04;2.40;;;1.70;;
8978;SDS011;4524;51.364;5.448;2023-05-06T10:16:33;2.10;;;1.90;;
8978;SDS011;4524;51.364;5.448;2023-05-06T10:19:03;3.17;;;1.60;;
8978;SDS011;4524;51.364;5.448;2023-05-06T10:21:33;3.63;;;2.07;;
8978;SDS011;4524;51.364;5.448;2023-05-06T10:24:06;3.57;;;1.90;;
8978;SDS011;4524;51.364;5.448;2023-05-06T10:26:37;3.33;;;1.90;;
8978;SDS011;4524;51.364;5.448;2023-05-06T10:29:09;2.73;;;1.73;;
8978;SDS011;4524;51.364;5.448;2023-05-06T10:31:38;3.07;;;1.67;;
8978;SDS011;4524;51.364;5.448;2023-05-06T10:34:21;3.00;;;1.90;;
8978;SDS011;4524;51.364;5.448;2023-05-06T10:36:52;4.53;;;1.83;;
8978;SDS011;4524;51.364;5.448;2023-05-06T10:39:23;2.87;;;1.53;;
8978;SDS011;4524;51.364;5.448;2023-05-06T10:41:52;3.33;;;1.70;;
8978;SDS011;4524;51.364;5.448;2023-05-06T10:47:22;2.83;;;1.70;;
8978;SDS011;4524;51.364;5.448;2023-05-06T10:52:49;3.43;;;1.70;;
8978;SDS011;4524;51.364;5.448;2023-05-06T10:55:24;3.27;;;1.87;;
8978;SDS011;4524;51.364;5.448;2023-05-06T10:57:54;2.20;;;1.60;;
8978;SDS011;4524;51.364;5.448;2023-05-06T11:00:22;2.50;;;1.60;;
8978;SDS011;4524;51.364;5.448;2023-05-06T11:02:56;3.37;;;1.70;;
8978;SDS011;4524;51.364;5.448;2023-05-06T11:05:27;2.67;;;1.57;;
8978;SDS011;4524;51.364;5.448;2023-05-06T11:08:06;2.23;;;1.60;;
8978;SDS011;4524;51.364;5.448;2023-05-06T11:10:35;2.10;;;1.30;;
8978;SDS011;4524;51.364;5.448;2023-05-06T11:13:20;3.80;;;1.70;;
8978;SDS011;4524;51.364;5.448;2023-05-06T11:15:52;2.87;;;1.50;;
8978;SDS011;4524;51.364;5.448;2023-05-06T11:18:40;2.83;;;1.40;;
8978;SDS011;4524;51.364;5.448;2023-05-06T11:24:09;4.77;;;1.50;;
8978;SDS011;4524;51.364;5.448;2023-05-06T11:26:41;2.03;;;1.47;;
8978;SDS011;4524;51.364;5.448;2023-05-06T11:29:09;2.37;;;1.30;;
8978;SDS011;4524;51.364;5.448;2023-05-06T11:31:38;2.90;;;1.47;;
8978;SDS011;4524;51.364;5.448;2023-05-06T11:34:10;2.20;;;1.50;;
8978;SDS011;4524;51.364;5.448;2023-05-06T11:36:46;3.10;;;1.70;;
8978;SDS011;4524;51.364;5.448;2023-05-06T11:39:16;2.20;;;1.40;;
8978;SDS011;4524;51.364;5.448;2023-05-06T11:41:43;3.00;;;1.40;;
8978;SDS011;4524;51.364;5.448;2023-05-06T11:44:22;2.83;;;1.50;;
8978;SDS011;4524;51.364;5.448;2023-05-06T11:46:51;2.93;;;1.50;;
8978;SDS011;4524;51.364;5.448;2023-05-06T11:49:24;2.73;;;1.30;;
8978;SDS011;4524;51.364;5.448;2023-05-06T11:51:52;3.50;;;1.53;;
8978;SDS011;4524;51.364;5.448;2023-05-06T11:54:23;1.63;;;1.13;;
8978;SDS011;4524;51.364;5.448;2023-05-06T11:56:52;2.17;;;1.10;;
8978;SDS011;4524;51.364;5.448;2023-05-06T11:59:25;2.70;;;1.10;;
8978;SDS011;4524;51.364;5.448;2023-05-06T12:01:58;2.50;;;1.10;;
8978;SDS011;4524;51.364;5.448;2023-05-06T12:04:30;2.03;;;1.30;;
8978;SDS011;4524;51.364;5.448;2023-05-06T12:07:04;3.37;;;1.50;;
8978;SDS011;4524;51.364;5.448;2023-05-06T12:09:32;2.23;;;1.13;;
8978;SDS011;4524;51.364;5.448;2023-05-06T12:12:02;2.57;;;1.40;;
8978;SDS011;4524;51.364;5.448;2023-05-06T12:14:31;2.87;;;1.30;;
8978;SDS011;4524;51.364;5.448;2023-05-06T12:16:59;2.40;;;1.30;;
8978;SDS011;4524;51.364;5.448;2023-05-06T12:19:29;2.20;;;1.60;;
8978;SDS011;4524;51.364;5.448;2023-05-06T12:22:12;3.70;;;1.53;;
8978;SDS011;4524;51.364;5.448;2023-05-06T12:24:41;3.10;;;1.50;;
8978;SDS011;4524;51.364;5.448;2023-05-06T12:27:09;2.30;;;1.37;;
8978;SDS011;4524;51.364;5.448;2023-05-06T12:29:36;2.33;;;1.43;;
8978;SDS011;4524;51.364;5.448;2023-05-06T12:32:05;2.63;;;1.50;;
8978;SDS011;4524;51.364;5.448;2023-05-06T12:34:36;3.43;;;1.57;;
8978;SDS011;4524;51.364;5.448;2023-05-06T12:37:05;3.17;;;1.30;;
8978;SDS011;4524;51.364;5.448;2023-05-06T12:39:34;2.33;;;1.50;;
8978;SDS011;4524;51.364;5.448;2023-05-06T12:42:02;1.87;;;1.20;;
8978;SDS011;4524;51.364;5.448;2023-05-06T12:44:31;4.07;;;1.40;;
8978;SDS011;4524;51.364;5.448;2023-05-06T12:47:02;3.63;;;1.77;;
8978;SDS011;4524;51.364;5.448;2023-05-06T12:49:47;4.50;;;1.50;;
8978;SDS011;4524;51.364;5.448;2023-05-06T12:52:16;3.10;;;1.53;;
8978;SDS011;4524;51.364;5.448;2023-05-06T12:54:44;2.50;;;1.20;;
8978;SDS011;4524;51.364;5.448;2023-05-06T12:57:13;2.03;;;1.40;;
8978;SDS011;4524;51.364;5.448;2023-05-06T12:59:42;2.43;;;1.40;;
8978;SDS011;4524;51.364;5.448;2023-05-06T13:02:10;2.07;;;1.30;;
8978;SDS011;4524;51.364;5.448;2023-05-06T13:04:39;2.80;;;1.40;;
8978;SDS011;4524;51.364;5.448;2023-05-06T13:07:08;2.80;;;1.50;;
8978;SDS011;4524;51.364;5.448;2023-05-06T13:09:37;2.13;;;1.20;;
8978;SDS011;4524;51.364;5.448;2023-05-06T13:12:05;2.37;;;1.20;;
8978;SDS011;4524;51.364;5.448;2023-05-06T13:14:33;2.73;;;1.23;;
8978;SDS011;4524;51.364;5.448;2023-05-06T13:17:05;2.27;;;1.20;;
8978;SDS011;4524;51.364;5.448;2023-05-06T13:19:33;3.13;;;1.60;;
8978;SDS011;4524;51.364;5.448;2023-05-06T13:22:01;4.07;;;1.33;;
8978;SDS011;4524;51.364;5.448;2023-05-06T13:24:31;3.17;;;1.50;;
8978;SDS011;4524;51.364;5.448;2023-05-06T13:26:58;2.60;;;1.30;;
8978;SDS011;4524;51.364;5.448;2023-05-06T13:29:27;2.90;;;1.30;;
8978;SDS011;4524;51.364;5.448;2023-05-06T13:31:55;3.23;;;1.23;;
8978;SDS011;4524;51.364;5.448;2023-05-06T13:34:23;3.63;;;1.73;;
8978;SDS011;4524;51.364;5.448;2023-05-06T13:36:51;2.07;;;1.20;;
8978;SDS011;4524;51.364;5.448;2023-05-06T13:39:19;4.23;;;1.30;;
8978;SDS011;4524;51.364;5.448;2023-05-06T13:41:49;2.33;;;1.20;;
8978;SDS011;4524;51.364;5.448;2023-05-06T13:44:17;2.00;;;1.20;;
8978;SDS011;4524;51.364;5.448;2023-05-06T13:46:46;2.47;;;1.17;;
8978;SDS011;4524;51.364;5.448;2023-05-06T13:49:14;1.77;;;1.13;;
8978;SDS011;4524;51.364;5.448;2023-05-06T13:51:43;3.87;;;1.30;;
8978;SDS011;4524;51.364;5.448;2023-05-06T13:54:11;3.30;;;1.40;;
8978;SDS011;4524;51.364;5.448;2023-05-06T13:56:39;2.73;;;1.40;;
8978;SDS011;4524;51.364;5.448;2023-05-06T13:59:08;2.83;;;1.20;;
8978;SDS011;4524;51.364;5.448;2023-05-06T14:01:37;3.60;;;1.57;;
8978;SDS011;4524;51.364;5.448;2023-05-06T14:04:05;2.77;;;1.13;;
8978;SDS011;4524;51.364;5.448;2023-05-06T14:06:33;4.40;;;1.40;;
8978;SDS011;4524;51.364;5.448;2023-05-06T14:09:00;3.07;;;1.20;;
8978;SDS011;4524;51.364;5.448;2023-05-06T14:11:29;2.33;;;1.40;;
8978;SDS011;4524;51.364;5.448;2023-05-06T14:13:57;1.33;;;1.07;;
8978;SDS011;4524;51.364;5.448;2023-05-06T14:16:27;2.63;;;1.30;;
8978;SDS011;4524;51.364;5.448;2023-05-06T14:18:55;1.40;;;1.23;;
8978;SDS011;4524;51.364;5.448;2023-05-06T14:21:23;2.50;;;1.10;;
8978;SDS011;4524;51.364;5.448;2023-05-06T14:23:51;2.80;;;1.50;;
8978;SDS011;4524;51.364;5.448;2023-05-06T14:26:19;2.03;;;1.30;;
8978;SDS011;4524;51.364;5.448;2023-05-06T14:28:47;2.63;;;1.40;;
8978;SDS011;4524;51.364;5.448;2023-05-06T14:31:15;3.07;;;1.40;;
8978;SDS011;4524;51.364;5.448;2023-05-06T14:33:45;2.90;;;1.27;;
8978;SDS011;4524;51.364;5.448;2023-05-06T14:36:16;2.80;;;1.43;;
8978;SDS011;4524;51.364;5.448;2023-05-06T14:38:44;3.17;;;1.23;;
8978;SDS011;4524;51.364;5.448;2023-05-06T14:41:12;4.53;;;1.40;;
8978;SDS011;4524;51.364;5.448;2023-05-06T14:43:40;1.40;;;1.13;;
8978;SDS011;4524;51.364;5.448;2023-05-06T14:46:08;4.93;;;1.60;;
8978;SDS011;4524;51.364;5.448;2023-05-06T14:48:37;2.90;;;1.43;;
8978;SDS011;4524;51.364;5.448;2023-05-06T14:51:06;2.60;;;1.33;;
8978;SDS011;4524;51.364;5.448;2023-05-06T14:53:34;2.00;;;1.20;;
8978;SDS011;4524;51.364;5.448;2023-05-06T14:56:02;2.60;;;1.40;;
8978;SDS011;4524;51.364;5.448;2023-05-06T14:58:30;3.03;;;1.40;;
8978;SDS011;4524;51.364;5.448;2023-05-06T15:00:58;2.23;;;1.10;;
8978;SDS011;4524;51.364;5.448;2023-05-06T15:03:25;2.33;;;1.60;;
8978;SDS011;4524;51.364;5.448;2023-05-06T15:05:53;6.17;;;1.97;;
8978;SDS011;4524;51.364;5.448;2023-05-06T15:08:23;8.60;;;2.10;;
8978;SDS011;4524;51.364;5.448;2023-05-06T15:10:51;6.20;;;2.30;;
8978;SDS011;4524;51.364;5.448;2023-05-06T15:13:20;4.83;;;2.13;;
8978;SDS011;4524;51.364;5.448;2023-05-06T15:15:48;8.17;;;2.57;;
8978;SDS011;4524;51.364;5.448;2023-05-06T15:18:16;4.77;;;1.93;;
8978;SDS011;4524;51.364;5.448;2023-05-06T15:20:43;6.30;;;2.27;;
8978;SDS011;4524;51.364;5.448;2023-05-06T15:23:11;4.67;;;2.13;;
8978;SDS011;4524;51.364;5.448;2023-05-06T15:25:41;3.77;;;2.13;;
8978;SDS011;4524;51.364;5.448;2023-05-06T15:28:08;4.80;;;2.03;;
8978;SDS011;4524;51.364;5.448;2023-05-06T15:30:36;5.87;;;2.50;;
8978;SDS011;4524;51.364;5.448;2023-05-06T15:33:04;5.47;;;2.20;;